createdAt,value
2023-03-13T00:01:48.719Z,100.00
2023-03-13T00:04:15.611Z,100.00
2023-03-13T00:06:42.983Z,100.00
2023-03-13T00:09:19.348Z,100.00
2023-03-13T00:11:47.138Z,100.00
2023-03-13T00:14:14.067Z,100.00
2023-03-13T00:16:43.279Z,100.00
2023-03-13T00:19:11.025Z,100.00
2023-03-13T00:21:38.185Z,100.00
2023-03-13T00:24:05.550Z,100.00
2023-03-13T00:26:34.983Z,100.00
2023-03-13T00:29:02.027Z,100.00
2023-03-13T00:31:33.924Z,100.00
2023-03-13T00:34:03.521Z,100.00
2023-03-13T00:36:38.695Z,100.00
2023-03-13T00:39:07.329Z,100.00
2023-03-13T00:41:36.357Z,100.00
2023-03-13T00:44:03.727Z,100.00
2023-03-13T00:46:31.665Z,100.00
2023-03-13T00:48:58.643Z,100.00
2023-03-13T00:51:27.598Z,100.00
2023-03-13T00:53:56.650Z,100.00
2023-03-13T00:56:23.676Z,100.00
2023-03-13T00:58:50.910Z,100.00
2023-03-13T01:01:21.508Z,100.00
2023-03-13T01:03:52.741Z,100.00
2023-03-13T01:06:25.281Z,100.00
2023-03-13T01:08:52.986Z,100.00
2023-03-13T01:11:23.818Z,100.00
2023-03-13T01:13:54.389Z,100.00
2023-03-13T01:16:23.220Z,100.00
2023-03-13T01:18:57.002Z,100.00
2023-03-13T01:21:24.685Z,100.00
2023-03-13T01:23:53.495Z,100.00
2023-03-13T01:26:21.891Z,100.00
2023-03-13T01:28:49.480Z,100.00
2023-03-13T01:31:23.475Z,100.00
2023-03-13T01:33:57.231Z,100.00
2023-03-13T01:36:25.183Z,100.00
2023-03-13T01:38:57.584Z,100.00
2023-03-13T01:41:26.635Z,100.00
2023-03-13T01:43:55.466Z,100.00
2023-03-13T01:46:28.044Z,100.00
2023-03-13T01:49:02.703Z,100.00
2023-03-13T01:52:02.258Z,100.00
2023-03-13T01:54:37.677Z,100.00
2023-03-13T01:57:09.535Z,100.00
2023-03-13T01:59:48.669Z,100.00
2023-03-13T02:02:16.744Z,100.00
2023-03-13T02:04:50.095Z,100.00
2023-03-13T02:07:23.992Z,100.00
2023-03-13T02:09:53.725Z,100.00
2023-03-13T02:12:31.474Z,100.00
2023-03-13T02:15:01.670Z,100.00
2023-03-13T02:17:30.879Z,100.00
2023-03-13T02:19:57.840Z,100.00
2023-03-13T02:22:47.236Z,100.00
2023-03-13T02:25:45.624Z,100.00
2023-03-13T02:28:35.785Z,100.00
2023-03-13T02:31:02.804Z,100.00
2023-03-13T02:33:38.971Z,100.00
2023-03-13T02:36:07.713Z,100.00
2023-03-13T02:38:55.533Z,100.00
2023-03-13T02:41:25.745Z,100.00
2023-03-13T02:43:52.659Z,100.00
2023-03-13T02:46:20.916Z,100.00
2023-03-13T02:48:54.652Z,100.00
2023-03-13T02:51:39.223Z,100.00
2023-03-13T02:54:21.803Z,100.00
2023-03-13T02:56:54.978Z,100.00
2023-03-13T02:59:25.435Z,100.00
2023-03-13T03:01:57.331Z,100.00
2023-03-13T03:04:26.313Z,100.00
2023-03-13T03:06:58.744Z,100.00
2023-03-13T03:09:26.203Z,100.00
2023-03-13T03:11:56.066Z,100.00
2023-03-13T03:14:25.274Z,100.00
2023-03-13T03:16:54.368Z,100.00
2023-03-13T03:19:23.341Z,100.00
2023-03-13T03:21:54.729Z,100.00
2023-03-13T03:24:21.635Z,100.00
2023-03-13T03:26:53.026Z,100.00
2023-03-13T03:29:22.362Z,100.00
2023-03-13T03:31:52.436Z,100.00
2023-03-13T03:34:20.689Z,100.00
2023-03-13T03:36:47.530Z,100.00
2023-03-13T03:39:14.385Z,100.00
2023-03-13T03:41:46.315Z,100.00
2023-03-13T03:44:16.158Z,100.00
2023-03-13T03:46:48.036Z,100.00
2023-03-13T03:49:14.943Z,100.00
2023-03-13T03:51:44.354Z,100.00
2023-03-13T03:54:11.211Z,100.00
2023-03-13T03:56:38.043Z,100.00
2023-03-13T03:59:04.888Z,100.00
2023-03-13T04:01:31.702Z,100.00
2023-03-13T04:03:58.548Z,100.00
2023-03-13T04:06:27.942Z,100.00
2023-03-13T04:08:58.306Z,100.00
2023-03-13T04:11:25.188Z,100.00
2023-03-13T04:13:54.307Z,100.00
2023-03-13T04:16:21.312Z,100.00
2023-03-13T04:18:48.235Z,100.00
2023-03-13T04:21:15.101Z,100.00
2023-03-13T04:23:43.999Z,100.00
2023-03-13T04:26:10.849Z,100.00
2023-03-13T04:28:37.716Z,100.00
2023-03-13T04:31:07.185Z,100.00
2023-03-13T04:33:34.336Z,100.00
2023-03-13T04:36:01.314Z,100.00
2023-03-13T04:38:28.170Z,100.00
2023-03-13T04:40:57.494Z,100.00
2023-03-13T04:43:26.576Z,100.00
2023-03-13T04:45:55.999Z,100.00
2023-03-13T04:48:25.183Z,100.00
2023-03-13T04:50:52.076Z,100.00
2023-03-13T04:53:19.397Z,100.00
2023-03-13T04:55:48.778Z,100.00
2023-03-13T04:58:15.611Z,100.00
2023-03-13T05:00:42.786Z,100.00
2023-03-13T05:03:09.628Z,100.00
2023-03-13T05:05:36.628Z,100.00
2023-03-13T05:08:03.696Z,100.00
2023-03-13T05:10:35.287Z,100.00
2023-03-13T05:13:04.192Z,100.00
2023-03-13T05:15:33.418Z,100.00
2023-03-13T05:18:02.490Z,100.00
2023-03-13T05:20:31.875Z,100.00
2023-03-13T05:23:01.259Z,100.00
2023-03-13T05:25:28.100Z,100.00
2023-03-13T05:27:54.955Z,100.00
2023-03-13T05:30:24.356Z,100.00
2023-03-13T05:32:51.299Z,100.00
2023-03-13T05:35:18.206Z,100.00
2023-03-13T05:37:46.236Z,100.00
2023-03-13T05:40:13.858Z,100.00
2023-03-13T05:42:40.831Z,100.00
2023-03-13T05:45:11.926Z,100.00
2023-03-13T05:47:43.866Z,100.00
2023-03-13T05:50:13.747Z,100.00
2023-03-13T05:52:40.612Z,100.00
2023-03-13T05:55:10.092Z,100.00
2023-03-13T05:57:37.023Z,100.00
2023-03-13T06:00:07.351Z,100.00
2023-03-13T06:02:34.345Z,100.00
2023-03-13T06:05:03.950Z,100.00
2023-03-13T06:07:30.799Z,100.00
2023-03-13T06:09:59.765Z,100.00
2023-03-13T06:12:28.862Z,100.00
2023-03-13T06:14:55.844Z,100.00
2023-03-13T06:17:25.607Z,100.00
2023-03-13T06:19:54.784Z,100.00
2023-03-13T06:22:24.244Z,100.00
2023-03-13T06:24:51.154Z,100.00
2023-03-13T06:27:18.128Z,100.00
2023-03-13T06:29:49.534Z,100.00
2023-03-13T06:32:22.114Z,100.00
2023-03-13T06:34:49.143Z,100.00
2023-03-13T06:37:16.049Z,100.00
2023-03-13T06:39:42.945Z,100.00
2023-03-13T06:42:14.470Z,100.00
2023-03-13T06:44:41.912Z,100.00
2023-03-13T06:47:08.853Z,100.00
2023-03-13T06:49:38.099Z,100.00
2023-03-13T06:52:05.244Z,100.00
2023-03-13T06:54:32.106Z,100.00
2023-03-13T06:57:01.020Z,100.00
2023-03-13T06:59:28.096Z,100.00
2023-03-13T07:01:55.121Z,100.00
2023-03-13T07:04:22.084Z,100.00
2023-03-13T07:06:51.089Z,100.00
2023-03-13T07:09:22.662Z,100.00
2023-03-13T07:11:49.571Z,100.00
2023-03-13T07:14:18.673Z,100.00
2023-03-13T07:16:46.965Z,100.00
2023-03-13T07:19:15.124Z,100.00
2023-03-13T07:21:42.204Z,100.00
2023-03-13T07:24:09.261Z,100.00
2023-03-13T07:26:46.531Z,100.00
2023-03-13T07:29:21.335Z,100.00
2023-03-13T07:31:50.453Z,100.00
2023-03-13T07:34:19.689Z,100.00
2023-03-13T07:36:46.620Z,100.00
2023-03-13T07:39:13.448Z,100.00
2023-03-13T07:41:43.308Z,100.00
2023-03-13T07:44:12.801Z,100.00
2023-03-13T07:46:41.992Z,100.00
2023-03-13T07:49:11.209Z,100.00
2023-03-13T07:51:43.960Z,100.00
2023-03-13T07:54:11.930Z,100.00
2023-03-13T07:56:43.815Z,100.00
2023-03-13T07:59:11.555Z,100.00
2023-03-13T08:01:38.634Z,100.00
2023-03-13T08:04:12.774Z,100.00
2023-03-13T08:06:41.119Z,100.00
2023-03-13T08:09:08.663Z,100.00
2023-03-13T08:11:38.694Z,100.00
2023-03-13T08:14:05.560Z,100.00
2023-03-13T08:16:35.176Z,100.00
2023-03-13T08:19:05.800Z,100.00
2023-03-13T08:21:38.705Z,100.00
2023-03-13T08:24:11.412Z,100.00
2023-03-13T08:26:41.132Z,100.00
2023-03-13T08:29:12.308Z,100.00
2023-03-13T08:31:55.666Z,100.00
2023-03-13T08:34:22.565Z,100.00
2023-03-13T08:36:53.099Z,100.00
2023-03-13T08:39:22.929Z,100.00
2023-03-13T08:41:50.112Z,100.00
2023-03-13T08:44:20.035Z,100.00
2023-03-13T08:46:49.114Z,100.00
2023-03-13T08:49:17.688Z,100.00
2023-03-13T08:51:47.032Z,100.00
2023-03-13T08:54:16.217Z,100.00
2023-03-13T08:56:43.957Z,100.00
2023-03-13T08:59:11.046Z,100.00
2023-03-13T09:01:38.031Z,100.00
2023-03-13T09:04:06.184Z,100.00
2023-03-13T09:06:40.255Z,100.00
2023-03-13T09:09:08.142Z,100.00
2023-03-13T09:11:40.308Z,100.00
2023-03-13T09:14:08.118Z,100.00
2023-03-13T09:16:38.740Z,100.00
2023-03-13T09:19:05.979Z,100.00
2023-03-13T09:21:35.047Z,100.00
2023-03-13T09:24:05.075Z,100.00
2023-03-13T09:26:32.010Z,100.00
2023-03-13T09:28:59.324Z,100.00
2023-03-13T09:31:31.971Z,100.00
2023-03-13T09:34:02.094Z,100.00
2023-03-13T09:36:31.268Z,100.00
2023-03-13T09:39:02.700Z,100.00
2023-03-13T09:41:57.308Z,100.00
2023-03-13T09:44:30.095Z,100.00
2023-03-13T09:47:30.701Z,100.00
2023-03-13T09:50:07.478Z,100.00
2023-03-13T09:52:41.100Z,100.00
2023-03-13T09:55:24.779Z,100.00
2023-03-13T09:58:02.607Z,100.00
2023-03-13T10:00:30.273Z,100.00
2023-03-13T10:03:07.633Z,100.00
2023-03-13T10:05:38.364Z,100.00
2023-03-13T10:08:24.512Z,100.00
2023-03-13T10:11:12.323Z,100.00
2023-03-13T10:13:50.844Z,100.00
2023-03-13T10:16:32.591Z,100.00
2023-03-13T10:19:14.032Z,100.00
2023-03-13T10:21:47.274Z,100.00
2023-03-13T10:24:51.128Z,100.00
2023-03-13T10:27:20.535Z,100.00
2023-03-13T10:29:47.502Z,100.00
2023-03-13T10:32:17.266Z,100.00
2023-03-13T10:35:02.999Z,100.00
2023-03-13T10:37:35.947Z,100.00
2023-03-13T10:40:38.757Z,100.00
2023-03-13T10:43:22.313Z,100.00
2023-03-13T10:45:56.017Z,100.00
2023-03-13T10:48:31.173Z,100.00
2023-03-13T10:51:02.358Z,100.00
2023-03-13T10:53:29.389Z,100.00
2023-03-13T10:56:05.953Z,100.00
2023-03-13T10:58:46.672Z,100.00
2023-03-13T11:01:25.473Z,94.70
2023-03-13T11:03:57.696Z,85.83
2023-03-13T11:06:24.544Z,78.75
2023-03-13T11:09:04.937Z,74.55
2023-03-13T11:11:50.699Z,73.21
2023-03-13T11:14:26.707Z,62.76
2023-03-13T11:17:04.408Z,67.92
2023-03-13T11:20:06.087Z,69.58
2023-03-13T11:22:48.523Z,65.98
2023-03-13T11:25:52.476Z,61.39
2023-03-13T11:28:59.777Z,62.72
2023-03-13T11:31:45.046Z,64.54
2023-03-13T11:34:27.769Z,65.92
2023-03-13T11:37:02.618Z,65.00
2023-03-13T11:39:59.172Z,71.53
2023-03-13T11:43:17.828Z,76.76
2023-03-13T11:45:57.614Z,81.43
2023-03-13T11:48:48.455Z,86.31
2023-03-13T11:51:25.115Z,85.76
2023-03-13T11:53:57.792Z,84.02
2023-03-13T11:56:47.347Z,85.27
2023-03-13T11:59:55.689Z,83.42
2023-03-13T12:03:09.101Z,70.61
2023-03-13T12:05:47.080Z,72.74
2023-03-13T12:08:27.238Z,74.21
2023-03-13T12:11:17.216Z,68.15
2023-03-13T12:13:59.673Z,64.64
2023-03-13T12:16:58.267Z,58.09
2023-03-13T12:19:42.895Z,54.78
2023-03-13T12:22:31.105Z,52.31
2023-03-13T12:25:13.334Z,49.75
2023-03-13T12:27:46.457Z,48.68
2023-03-13T12:30:45.593Z,46.23
2023-03-13T12:33:32.486Z,47.31
2023-03-13T12:36:29.343Z,50.02
2023-03-13T12:39:23.093Z,50.60
2023-03-13T12:42:26.296Z,46.51
2023-03-13T12:44:57.336Z,42.07
2023-03-13T12:47:46.550Z,40.13
2023-03-13T12:50:19.762Z,40.19
2023-03-13T12:53:20.393Z,46.41
2023-03-13T12:56:20.365Z,47.20
2023-03-13T12:58:53.206Z,45.75
2023-03-13T13:01:30.824Z,44.39
2023-03-13T13:04:11.111Z,43.49
2023-03-13T13:07:27.649Z,42.80
2023-03-13T13:10:09.537Z,41.63
2023-03-13T13:12:46.621Z,39.32
2023-03-13T13:15:29.226Z,41.37
2023-03-13T13:17:58.873Z,41.10
2023-03-13T13:20:45.016Z,38.72
2023-03-13T13:23:38.721Z,37.52
2023-03-13T13:26:30.439Z,39.24
2023-03-13T13:29:22.244Z,39.88
2023-03-13T13:31:51.824Z,40.53
2023-03-13T13:34:31.013Z,39.72
2023-03-13T13:37:00.336Z,37.39
2023-03-13T13:39:39.831Z,35.20
2023-03-13T13:42:31.570Z,37.60
2023-03-13T13:45:16.478Z,38.43
2023-03-13T13:48:12.779Z,36.45
2023-03-13T13:50:39.744Z,37.42
2023-03-13T13:53:42.350Z,38.60
2023-03-13T13:56:38.430Z,39.31
2023-03-13T13:59:20.298Z,40.80
2023-03-13T14:01:52.778Z,42.21
2023-03-13T14:04:35.204Z,43.78
2023-03-13T14:07:08.687Z,45.18
2023-03-13T14:09:52.565Z,42.93
2023-03-13T14:12:28.107Z,41.16
2023-03-13T14:15:33.799Z,46.46
2023-03-13T14:18:13.332Z,46.60
2023-03-13T14:21:00.360Z,47.17
2023-03-13T14:23:42.671Z,45.25
2023-03-13T14:26:24.894Z,44.38
2023-03-13T14:29:05.383Z,42.76
2023-03-13T14:31:38.860Z,41.84
2023-03-13T14:34:12.559Z,39.37
2023-03-13T14:37:17.111Z,41.93
2023-03-13T14:39:49.144Z,45.20
2023-03-13T14:42:24.394Z,46.17
2023-03-13T14:44:59.591Z,45.59
2023-03-13T14:47:31.226Z,47.26
2023-03-13T14:50:09.948Z,44.75
2023-03-13T14:52:39.896Z,44.92
2023-03-13T14:55:27.236Z,45.24
2023-03-13T14:58:31.772Z,43.96
2023-03-13T15:01:25.937Z,42.30
2023-03-13T15:03:53.017Z,43.76
2023-03-13T15:06:23.412Z,45.28
2023-03-13T15:09:10.119Z,45.36
2023-03-13T15:11:42.056Z,44.72
2023-03-13T15:14:39.510Z,43.32
2023-03-13T15:17:22.512Z,45.64
2023-03-13T15:19:58.077Z,46.30
2023-03-13T15:22:39.575Z,47.89
2023-03-13T15:25:20.364Z,46.28
2023-03-13T15:27:48.241Z,48.06
2023-03-13T15:30:25.444Z,48.87
2023-03-13T15:32:54.892Z,50.15
2023-03-13T15:35:32.874Z,51.05
2023-03-13T15:38:01.999Z,51.44
2023-03-13T15:40:30.829Z,53.18
2023-03-13T15:43:00.343Z,54.24
2023-03-13T15:45:31.768Z,54.23
2023-03-13T15:48:00.692Z,54.30
2023-03-13T15:50:30.946Z,54.89
2023-03-13T15:52:58.783Z,56.39
2023-03-13T15:55:27.627Z,56.75
2023-03-13T15:57:59.878Z,56.96
2023-03-13T16:00:27.367Z,57.01
2023-03-13T16:02:56.320Z,57.18
2023-03-13T16:05:26.294Z,57.02
2023-03-13T16:07:55.529Z,57.36
2023-03-13T16:10:27.924Z,57.17
2023-03-13T16:12:57.218Z,57.66
2023-03-13T16:15:29.217Z,56.40
2023-03-13T16:17:56.237Z,56.67
2023-03-13T16:20:24.385Z,56.67
2023-03-13T16:22:53.590Z,56.54
2023-03-13T16:25:21.532Z,56.91
2023-03-13T16:27:49.765Z,57.18
2023-03-13T16:30:29.340Z,56.98
2023-03-13T16:32:57.192Z,57.26
2023-03-13T16:35:26.864Z,57.12
2023-03-13T16:38:00.882Z,57.71
2023-03-13T16:40:33.491Z,57.64
2023-03-13T16:43:00.933Z,57.43
2023-03-13T16:45:28.087Z,57.76
2023-03-13T16:47:57.258Z,57.45
2023-03-13T16:50:35.693Z,57.07
2023-03-13T16:53:03.480Z,57.46
2023-03-13T16:55:36.156Z,56.70
2023-03-13T16:58:04.231Z,56.92
2023-03-13T17:00:32.804Z,57.46
2023-03-13T17:03:02.555Z,57.10
2023-03-13T17:05:32.106Z,56.81
2023-03-13T17:07:59.149Z,55.89
2023-03-13T17:10:32.582Z,56.46
2023-03-13T17:13:06.672Z,55.85
2023-03-13T17:15:33.679Z,55.60
2023-03-13T17:18:03.246Z,56.11
2023-03-13T17:20:32.724Z,56.60
2023-03-13T17:23:01.058Z,56.21
2023-03-13T17:25:27.952Z,56.57
2023-03-13T17:27:54.968Z,57.11
2023-03-13T17:30:30.700Z,56.94
2023-03-13T17:33:01.143Z,56.79
2023-03-13T17:35:31.066Z,56.63
2023-03-13T17:37:58.048Z,57.00
2023-03-13T17:40:31.234Z,57.62
2023-03-13T17:43:03.728Z,57.46
2023-03-13T17:45:30.905Z,57.94
2023-03-13T17:47:57.820Z,57.60
2023-03-13T17:50:27.377Z,58.63
2023-03-13T17:52:55.499Z,59.06
2023-03-13T17:55:25.250Z,59.67
2023-03-13T17:57:53.326Z,59.69
2023-03-13T18:00:30.193Z,59.95
2023-03-13T18:02:58.945Z,60.97
2023-03-13T18:05:29.066Z,61.71
2023-03-13T18:07:58.198Z,61.19
2023-03-13T18:10:30.063Z,61.91
2023-03-13T18:12:57.843Z,62.04
2023-03-13T18:15:27.509Z,62.62
2023-03-13T18:17:54.894Z,62.66
2023-03-13T18:20:29.637Z,62.71
2023-03-13T18:23:00.344Z,62.58
2023-03-13T18:25:31.516Z,63.38
2023-03-13T18:28:01.531Z,63.66
2023-03-13T18:30:28.785Z,63.68
2023-03-13T18:32:58.219Z,63.49
2023-03-13T18:35:25.417Z,63.25
2023-03-13T18:37:54.419Z,63.10
2023-03-13T18:40:28.695Z,63.62
2023-03-13T18:42:55.764Z,64.03
2023-03-13T18:45:25.940Z,63.79
2023-03-13T18:47:55.418Z,63.90
2023-03-13T18:50:29.366Z,64.37
2023-03-13T18:53:01.013Z,64.62
2023-03-13T18:55:32.478Z,64.18
2023-03-13T18:57:59.302Z,65.17
2023-03-13T19:00:33.618Z,65.04
2023-03-13T19:03:03.407Z,65.23
2023-03-13T19:05:33.262Z,64.97
2023-03-13T19:08:04.718Z,65.28
2023-03-13T19:10:32.803Z,65.09
2023-03-13T19:13:01.921Z,65.52
2023-03-13T19:15:31.780Z,65.83
2023-03-13T19:18:03.630Z,66.26
2023-03-13T19:20:31.092Z,65.86
2023-03-13T19:23:00.597Z,65.97
2023-03-13T19:25:29.958Z,65.77
2023-03-13T19:27:56.952Z,66.31
2023-03-13T19:30:27.059Z,67.38
2023-03-13T19:32:54.056Z,67.15
2023-03-13T19:35:22.061Z,67.43
2023-03-13T19:37:51.951Z,66.89
2023-03-13T19:40:26.265Z,67.93
2023-03-13T19:42:53.161Z,68.96
2023-03-13T19:45:22.848Z,69.26
2023-03-13T19:47:50.287Z,69.47
2023-03-13T19:50:27.976Z,69.01
2023-03-13T19:52:54.865Z,68.46
2023-03-13T19:55:21.794Z,69.42
2023-03-13T19:57:48.681Z,70.50
2023-03-13T20:00:25.733Z,70.40
2023-03-13T20:02:55.149Z,70.22
2023-03-13T20:05:22.867Z,71.09
2023-03-13T20:07:49.906Z,71.89
2023-03-13T20:10:19.800Z,70.98
2023-03-13T20:12:49.296Z,71.00
2023-03-13T20:15:21.272Z,70.37
2023-03-13T20:17:48.710Z,70.79
2023-03-13T20:20:16.189Z,71.56
2023-03-13T20:22:45.530Z,71.95
2023-03-13T20:25:12.392Z,72.53
2023-03-13T20:27:39.332Z,72.30
2023-03-13T20:30:11.877Z,73.57
2023-03-13T20:32:56.791Z,72.69
2023-03-13T20:35:26.220Z,73.21
2023-03-13T20:37:54.744Z,74.16
2023-03-13T20:40:23.954Z,73.45
2023-03-13T20:42:51.396Z,73.82
2023-03-13T20:45:18.289Z,74.21
2023-03-13T20:47:47.644Z,74.56
2023-03-13T20:50:14.558Z,74.99
2023-03-13T20:52:43.611Z,75.70
2023-03-13T20:55:10.492Z,75.61
2023-03-13T20:57:39.493Z,76.45
2023-03-13T21:00:07.351Z,76.22
2023-03-13T21:02:34.224Z,76.13
2023-03-13T21:05:04.349Z,76.06
2023-03-13T21:07:32.294Z,76.56
2023-03-13T21:10:01.436Z,75.90
2023-03-13T21:12:29.082Z,76.19
2023-03-13T21:14:55.973Z,76.18
2023-03-13T21:17:28.699Z,76.17
2023-03-13T21:19:55.659Z,76.94
2023-03-13T21:22:23.884Z,76.03
2023-03-13T21:24:51.012Z,76.31
2023-03-13T21:27:17.877Z,76.15
2023-03-13T21:29:47.235Z,76.08
2023-03-13T21:32:15.164Z,75.67
2023-03-13T21:34:44.640Z,75.16
2023-03-13T21:37:12.957Z,75.73
2023-03-13T21:39:42.779Z,76.32
2023-03-13T21:42:15.490Z,76.12
2023-03-13T21:44:45.547Z,75.96
2023-03-13T21:47:24.141Z,76.06
2023-03-13T21:49:55.075Z,75.82
2023-03-13T21:52:23.476Z,76.31
2023-03-13T21:54:56.150Z,75.83
2023-03-13T21:57:25.237Z,76.11
2023-03-13T21:59:52.064Z,76.08
2023-03-13T22:02:18.950Z,75.98
2023-03-13T22:04:45.894Z,75.64
2023-03-13T22:07:15.223Z,75.81
2023-03-13T22:09:42.101Z,75.55
2023-03-13T22:12:11.421Z,74.67
2023-03-13T22:14:38.277Z,75.47
2023-03-13T22:17:05.113Z,75.53
2023-03-13T22:19:32.015Z,75.58
2023-03-13T22:22:00.791Z,75.78
2023-03-13T22:24:27.646Z,74.48
2023-03-13T22:26:54.462Z,74.72
2023-03-13T22:29:22.764Z,74.87
2023-03-13T22:31:52.595Z,75.73
2023-03-13T22:34:21.696Z,75.06
2023-03-13T22:36:48.531Z,74.91
2023-03-13T22:39:20.285Z,75.98
2023-03-13T22:41:49.520Z,75.34
2023-03-13T22:44:16.863Z,76.23
2023-03-13T22:46:43.763Z,75.19
2023-03-13T22:49:15.146Z,76.09
2023-03-13T22:51:44.588Z,75.96
2023-03-13T22:54:11.519Z,75.78
2023-03-13T22:56:38.392Z,75.37
2023-03-13T22:59:09.888Z,74.72
2023-03-13T23:01:36.833Z,75.61
2023-03-13T23:04:08.488Z,76.18
2023-03-13T23:06:35.360Z,75.76
2023-03-13T23:09:02.383Z,76.70
2023-03-13T23:11:31.467Z,76.71
2023-03-13T23:13:58.390Z,76.03
2023-03-13T23:16:27.992Z,77.01
2023-03-13T23:18:54.950Z,77.75
2023-03-13T23:21:21.784Z,78.19
2023-03-13T23:23:48.900Z,78.19
2023-03-13T23:26:18.260Z,78.14
2023-03-13T23:28:47.587Z,78.97
2023-03-13T23:31:19.135Z,79.90
2023-03-13T23:33:47.064Z,79.85
2023-03-13T23:36:17.672Z,79.31
2023-03-13T23:38:49.162Z,79.72
2023-03-13T23:41:19.366Z,80.35
2023-03-13T23:43:48.862Z,80.40
2023-03-13T23:46:22.453Z,79.57
2023-03-13T23:48:52.892Z,80.10
2023-03-13T23:51:22.067Z,80.01
2023-03-13T23:53:51.692Z,80.20
2023-03-13T23:56:25.277Z,79.49
2023-03-13T23:58:55.900Z,79.20
